Time;durP1;ratioP1;P1;durP2;ratioP2;P2;SDS_P1;SDS_P2;PMS_P1;PMS_P2;Temp;Humidity;BMP_temperature;BMP_pressure;BME280_temperature;BME280_humidity;BME280_pressure;Samples;Min_cycle;Max_cycle;Signal;HPM_P1;HPM_P2
2022/04/10 00:01:56;;;;;;;13.63;4.43;;;;;;;2.07;84.73;101580.00;5064802;28;20028;-74
2022/04/10 00:04:22;;;;;;;14.75;4.32;;;;;;;2.05;84.98;101581.81;5044814;28;20028;-74
2022/04/10 00:06:48;;;;;;;9.07;5.13;;;;;;;2.03;85.46;101583.63;5042204;28;20032;-74
2022/04/10 00:09:14;;;;;;;12.07;4.72;;;;;;;1.99;84.92;101581.31;5060179;28;20105;-74
2022/04/10 00:11:40;;;;;;;12.73;4.07;;;;;;;2.05;85.08;101581.81;5041875;28;20098;-73
2022/04/10 00:14:05;;;;;;;8.38;4.05;;;;;;;1.92;85.22;101579.09;5059864;28;20061;-74
2022/04/10 00:16:31;;;;;;;7.53;4.20;;;;;;;1.97;84.89;101572.91;5039458;28;20052;-74
2022/04/10 00:19:01;;;;;;;11.63;4.25;;;;;;;2.03;84.55;101587.91;5041864;28;20566;-74
2022/04/10 00:21:27;;;;;;;13.23;4.43;;;;;;;1.97;84.62;101585.69;5025407;28;20043;-74
2022/04/10 00:23:53;;;;;;;15.20;4.95;;;;;;;2.05;84.83;101581.81;5043646;28;20079;-74
2022/04/10 00:26:19;;;;;;;13.10;4.93;;;;;;;2.05;84.21;101583.53;5043261;28;20131;-74
2022/04/10 00:28:44;;;;;;;7.80;4.13;;;;;;;2.00;84.44;101582.94;5039790;28;20032;-74
2022/04/10 00:31:10;;;;;;;16.55;4.55;;;;;;;2.04;84.36;101580.16;5042649;28;20036;-74
2022/04/10 00:33:36;;;;;;;10.23;3.85;;;;;;;1.95;84.86;101580.66;5063946;28;20119;-74
2022/04/10 00:36:02;;;;;;;12.55;4.38;;;;;;;1.89;84.80;101586.91;5045456;28;20037;-74
2022/04/10 00:38:28;;;;;;;13.20;4.00;;;;;;;1.87;84.82;101586.16;5040227;28;20494;-74
2022/04/10 00:40:53;;;;;;;12.38;4.00;;;;;;;1.82;85.16;101583.03;5039676;28;20033;-74
2022/04/10 00:43:19;;;;;;;12.80;3.95;;;;;;;1.95;85.15;101580.66;5056091;28;20509;-74
2022/04/10 00:45:45;;;;;;;10.82;4.22;;;;;;;1.89;84.92;101584.34;5038893;28;20040;-74
2022/04/10 00:48:10;;;;;;;10.40;4.28;;;;;;;1.89;84.54;101583.53;5044410;28;20473;-73
2022/04/10 00:50:36;;;;;;;8.15;4.25;;;;;;;1.95;84.66;101583.22;5037749;28;20087;-74
2022/04/10 00:53:02;;;;;;;15.38;4.38;;;;;;;1.83;84.46;101586.41;5042458;28;20571;-74
2022/04/10 00:55:28;;;;;;;14.75;5.00;;;;;;;1.84;84.61;101583.75;5042169;28;20098;-74
2022/04/10 00:57:54;;;;;;;20.55;4.55;;;;;;;1.87;84.69;101591.28;5043455;28;20040;-73
2022/04/10 01:00:19;;;;;;;10.00;4.20;;;;;;;1.84;84.43;101588.88;5042937;28;20024;-74
2022/04/10 01:02:45;;;;;;;21.20;5.35;;;;;;;1.87;84.32;101596.41;5026225;28;20025;-74
2022/04/10 01:05:10;;;;;;;9.63;4.28;;;;;;;1.88;84.09;101592.09;5062555;28;20078;-74
2022/04/10 01:07:36;;;;;;;16.65;4.50;;;;;;;1.85;84.43;101589.72;5042782;28;20067;-74
2022/04/10 01:10:05;;;;;;;11.43;4.10;;;;;;;1.80;84.07;101584.84;5040138;28;20032;-75
2022/04/10 01:12:33;;;;;;;15.02;4.38;;;;;;;1.70;84.79;101587.03;5042208;28;20162;-74
2022/04/10 01:15:02;;;;;;;17.45;4.70;;;;;;;1.65;85.43;101595.84;5043125;28;20093;-74
2022/04/10 01:17:32;;;;;;;12.88;4.13;;;;;;;1.73;85.26;101583.50;5035245;28;20036;-74
2022/04/10 01:19:59;;;;;;;16.33;5.60;;;;;;;1.67;85.12;101583.81;5026662;28;20087;-74
2022/04/10 01:22:35;;;;;;;11.20;4.25;;;;;;;1.66;85.02;101588.13;5039510;28;20102;-74
2022/04/10 01:25:05;;;;;;;25.05;4.78;;;;;;;1.61;85.26;101579.84;5020814;28;21093;-74
2022/04/10 01:27:39;;;;;;;20.48;4.85;;;;;;;1.61;85.14;101587.53;5039620;28;20089;-74
2022/04/10 01:30:08;;;;;;;15.82;4.70;;;;;;;1.59;84.92;101591.06;5039270;28;20484;-74
2022/04/10 01:32:34;;;;;;;13.52;4.70;;;;;;;1.54;85.62;101584.47;5041726;28;20047;-74
2022/04/10 01:35:02;;;;;;;16.33;4.90;;;;;;;1.56;84.77;101586.91;5059992;28;20051;-74
2022/04/10 01:37:29;;;;;;;10.60;4.30;;;;;;;1.56;85.26;101592.03;5034816;28;20028;-74
2022/04/10 01:39:54;;;;;;;15.52;4.50;;;;;;;1.49;85.18;101596.66;5041582;28;20128;-74
2022/04/10 01:42:21;;;;;;;10.68;4.07;;;;;;;1.53;85.48;101592.22;5038618;28;20032;-74
2022/04/10 01:44:47;;;;;;;15.70;4.43;;;;;;;1.47;85.05;101587.38;5019765;28;20290;-74
2022/04/10 01:47:15;;;;;;;25.30;6.25;;;;;;;1.45;85.21;101584.09;5039404;28;20078;-74
2022/04/10 01:49:41;;;;;;;12.63;4.15;;;;;;;1.40;85.41;101586.06;5024036;28;20076;-74
2022/04/10 01:52:07;;;;;;;22.23;5.72;;;;;;;1.43;85.10;101591.84;5058108;28;20035;-74
2022/04/10 01:54:33;;;;;;;17.17;5.15;;;;;;;1.37;85.37;101579.34;5055382;28;20076;-74
2022/04/10 01:56:58;;;;;;;14.40;4.50;;;;;;;1.38;85.93;101585.31;5038245;28;20123;-74
2022/04/10 01:59:28;;;;;;;11.60;4.63;;;;;;;1.31;86.10;101593.28;5040373;28;20143;-74
2022/04/10 02:01:53;;;;;;;11.02;4.20;;;;;;;1.26;86.49;101587.59;5025541;28;20845;-74
2022/04/10 02:04:20;;;;;;;12.15;4.75;;;;;;;1.23;86.34;101590.28;5053571;28;20028;-74
2022/04/10 02:06:46;;;;;;;9.45;4.47;;;;;;;1.20;86.60;101590.41;5023350;28;20417;-74
2022/04/10 02:09:11;;;;;;;11.73;4.32;;;;;;;1.16;86.42;101604.25;5025020;28;20035;-74
2022/04/10 02:11:38;;;;;;;14.75;4.47;;;;;;;1.16;86.43;101607.63;5039976;28;20102;-74
2022/04/10 02:14:04;;;;;;;16.00;4.55;;;;;;;1.17;86.00;101600.81;5043686;28;20370;-75
2022/04/10 02:16:30;;;;;;;11.80;4.90;;;;;;;1.09;86.56;101603.75;5039867;28;20090;-74
2022/04/10 02:18:55;;;;;;;15.35;4.93;;;;;;;1.09;86.38;101597.78;5040083;28;20070;-74
2022/04/10 02:21:21;;;;;;;17.75;5.40;;;;;;;1.09;86.88;101606.31;5037085;28;20033;-74
2022/04/10 02:23:46;;;;;;;14.48;3.92;;;;;;;1.05;86.72;101606.50;5042591;28;20029;-74
2022/04/10 02:26:15;;;;;;;22.40;5.13;;;;;;;1.03;87.39;101608.31;5038083;28;20029;-74
2022/04/10 02:28:42;;;;;;;16.75;5.15;;;;;;;1.02;87.27;101611.75;5042408;28;20070;-74
2022/04/10 02:31:08;;;;;;;18.35;4.55;;;;;;;1.01;87.33;101605.00;5024540;28;20029;-74
2022/04/10 02:33:34;;;;;;;12.45;5.03;;;;;;;0.99;87.50;101607.63;5039295;28;20052;-74
2022/04/10 02:36:00;;;;;;;9.23;4.35;;;;;;;0.98;87.68;101606.00;5023570;28;20540;-75
2022/04/10 02:38:27;;;;;;;11.52;4.65;;;;;;;0.94;87.86;101607.88;5039502;28;20182;-75
2022/04/10 02:40:52;;;;;;;22.05;4.75;;;;;;;0.92;88.26;101614.78;5055275;28;20062;-74
2022/04/10 02:43:19;;;;;;;16.90;5.38;;;;;;;0.91;88.40;101610.56;5040035;28;20027;-74
2022/04/10 02:45:46;;;;;;;13.98;5.72;;;;;;;0.91;88.33;101613.13;5056137;28;20032;-74
2022/04/10 02:48:12;;;;;;;14.85;4.90;;;;;;;0.92;88.64;101612.22;5038572;28;20033;-74
2022/04/10 02:50:39;;;;;;;16.05;5.38;;;;;;;1.02;88.65;101616.88;5041618;28;20033;-74
2022/04/10 02:53:06;;;;;;;16.23;5.05;;;;;;;1.11;88.11;101616.41;5038394;28;20021;-73
2022/04/10 02:55:32;;;;;;;12.70;5.30;;;;;;;1.14;88.24;101618.84;5038019;28;20045;-74
2022/04/10 02:57:58;;;;;;;13.85;5.60;;;;;;;1.07;88.78;101625.97;5037304;28;20036;-74
2022/04/10 03:00:24;;;;;;;15.68;5.80;;;;;;;1.11;88.96;101624.94;5038829;28;20062;-74
2022/04/10 03:02:50;;;;;;;19.17;6.07;;;;;;;1.02;89.00;101624.53;5041285;28;21411;-74
2022/04/10 03:05:15;;;;;;;12.32;5.30;;;;;;;0.97;89.75;101630.69;5058034;28;20032;-74
2022/04/10 03:07:42;;;;;;;16.80;6.00;;;;;;;1.03;89.25;101629.56;5022547;28;20226;-74
2022/04/10 03:10:09;;;;;;;19.83;6.25;;;;;;;1.05;89.55;101622.66;5054791;28;20058;-74
2022/04/10 03:12:35;;;;;;;18.42;5.88;;;;;;;1.07;89.85;101625.13;5040852;28;20220;-74
2022/04/10 03:15:01;;;;;;;15.30;5.68;;;;;;;1.06;89.68;101626.88;5046079;28;20055;-74
2022/04/10 03:17:26;;;;;;;18.27;6.38;;;;;;;1.16;89.89;101633.19;5043092;28;20497;-74
2022/04/10 03:19:52;;;;;;;21.80;6.30;;;;;;;1.17;89.47;101624.63;5029692;28;20028;-74
2022/04/10 03:22:18;;;;;;;17.63;6.47;;;;;;;1.21;89.44;101630.41;5041494;28;20036;-73
2022/04/10 03:24:43;;;;;;;16.83;6.35;;;;;;;1.24;89.13;101629.44;5039452;28;20033;-74
2022/04/10 03:27:11;;;;;;;18.02;5.70;;;;;;;1.17;89.51;101634.03;5025043;28;20142;-74
2022/04/10 03:29:37;;;;;;;15.60;5.63;;;;;;;1.10;89.55;101633.47;5062605;28;20821;-74
2022/04/10 03:32:03;;;;;;;21.45;6.70;;;;;;;1.06;89.60;101631.16;5043731;28;20036;-74
2022/04/10 03:34:29;;;;;;;18.35;6.28;;;;;;;1.07;90.06;101630.25;5043426;28;20035;-74
2022/04/10 03:36:55;;;;;;;17.08;6.60;;;;;;;1.10;90.12;101632.66;5043089;28;20029;-74
2022/04/10 03:39:20;;;;;;;17.17;6.72;;;;;;;1.09;90.01;101631.84;5040884;28;20523;-74
2022/04/10 03:41:46;;;;;;;23.45;6.57;;;;;;;1.07;89.93;101632.81;5025349;28;20177;-74
2022/04/10 03:44:12;;;;;;;18.50;6.20;;;;;;;1.01;89.86;101628.00;5043640;28;20017;-74
2022/04/10 03:46:37;;;;;;;19.90;6.07;;;;;;;0.93;90.00;101639.41;5059653;28;20469;-74
2022/04/10 03:49:04;;;;;;;14.40;6.45;;;;;;;0.92;90.32;101635.22;5046673;28;20036;-74
2022/04/10 03:51:30;;;;;;;13.98;6.43;;;;;;;0.86;90.34;101637.22;5061392;28;20032;-74
2022/04/10 03:53:55;;;;;;;17.83;6.38;;;;;;;0.83;90.73;101645.00;5060295;28;20021;-74
2022/04/10 03:56:21;;;;;;;18.08;6.60;;;;;;;0.85;90.67;101643.22;5045017;28;20086;-74
2022/04/10 03:58:46;;;;;;;11.15;5.72;;;;;;;0.80;90.21;101647.72;5024641;28;20029;-74
2022/04/10 04:01:13;;;;;;;15.57;6.75;;;;;;;0.76;90.76;101647.03;5039910;28;20024;-73
2022/04/10 04:03:39;;;;;;;18.60;6.28;;;;;;;0.74;90.84;101653.94;5042444;28;20505;-74
2022/04/10 04:06:07;;;;;;;25.63;8.25;;;;;;;0.71;91.05;101659.19;5044462;28;20161;-73
2022/04/10 04:08:33;;;;;;;20.30;7.72;;;;;;;0.75;90.88;101660.69;5043188;28;20024;-74
2022/04/10 04:10:59;;;;;;;12.82;6.53;;;;;;;0.71;90.33;101662.56;5043212;28;20032;-74
2022/04/10 04:13:25;;;;;;;12.35;6.28;;;;;;;0.67;91.27;101661.06;5043940;28;20472;-74
2022/04/10 04:15:51;;;;;;;25.27;7.38;;;;;;;0.63;90.68;101666.38;5027384;28;20516;-74
2022/04/10 04:18:17;;;;;;;10.70;5.65;;;;;;;0.58;90.79;101669.97;5042331;28;20027;-74
2022/04/10 04:20:42;;;;;;;12.15;5.88;;;;;;;0.58;90.98;101667.44;5061495;28;20033;-73
2022/04/10 04:23:08;;;;;;;13.23;6.47;;;;;;;0.55;91.17;101662.44;5059168;28;20408;-74
2022/04/10 04:25:34;;;;;;;14.18;6.00;;;;;;;0.54;91.31;101673.53;5043071;28;20082;-73
2022/04/10 04:28:01;;;;;;;17.58;6.40;;;;;;;0.49;91.49;101667.00;5056417;28;20044;-74
2022/04/10 04:30:28;;;;;;;14.60;5.88;;;;;;;0.46;91.14;101674.81;5025007;28;20065;-74
2022/04/10 04:33:00;;;;;;;17.67;6.20;;;;;;;0.43;91.24;101675.75;5060106;28;20033;-74
2022/04/10 04:35:26;;;;;;;13.50;6.25;;;;;;;0.42;91.28;101683.50;5040349;28;20040;-74
2022/04/10 04:37:52;;;;;;;12.10;6.18;;;;;;;0.38;91.56;101688.72;5040858;28;20039;-74
2022/04/10 04:40:21;;;;;;;16.00;6.30;;;;;;;0.36;91.84;101689.69;5025743;28;20033;-74
2022/04/10 04:42:48;;;;;;;13.55;6.40;;;;;;;0.37;91.39;101684.50;5036820;28;20028;-74
2022/04/10 04:45:14;;;;;;;18.40;8.07;;;;;;;0.37;91.79;101688.78;5045026;28;20062;-74
2022/04/10 04:47:54;;;;;;;13.20;6.30;;;;;;;0.33;91.83;101689.81;5041078;28;20127;-73
2022/04/10 04:50:20;;;;;;;23.55;6.97;;;;;;;0.30;91.77;101706.13;5028102;28;20228;-74
2022/04/10 04:52:45;;;;;;;17.70;7.53;;;;;;;0.34;91.73;101699.13;5043858;28;20683;-74
2022/04/10 04:55:11;;;;;;;13.93;5.88;;;;;;;0.32;91.67;101708.56;5023483;28;21283;-74
2022/04/10 04:57:37;;;;;;;18.10;5.97;;;;;;;0.30;92.29;101708.66;5057450;28;20605;-74
2022/04/10 05:00:05;;;;;;;15.65;6.50;;;;;;;0.27;92.39;101711.34;5027785;28;20515;-74
2022/04/10 05:02:35;;;;;;;16.15;6.45;;;;;;;0.26;92.25;101717.31;5039053;28;20656;-74
2022/04/10 05:05:01;;;;;;;14.63;6.75;;;;;;;0.23;92.40;101714.94;5039024;28;20033;-73
2022/04/10 05:07:27;;;;;;;15.75;6.65;;;;;;;0.24;92.16;101716.56;5037388;28;20037;-74
2022/04/10 05:09:52;;;;;;;10.20;5.35;;;;;;;0.23;92.36;101714.94;5038897;28;20578;-74
2022/04/10 05:12:18;;;;;;;16.20;6.32;;;;;;;0.22;92.38;101710.69;5025088;28;20547;-74
2022/04/10 05:14:46;;;;;;;15.30;6.97;;;;;;;0.21;92.31;101714.16;5036798;28;20158;-74
2022/04/10 05:17:13;;;;;;;13.25;6.75;;;;;;;0.22;92.37;101720.09;5026613;28;20037;-73
2022/04/10 05:19:44;;;;;;;18.85;7.32;;;;;;;0.22;92.73;101722.63;5043080;28;20064;-74
2022/04/10 05:22:10;;;;;;;14.63;6.93;;;;;;;0.24;92.54;101720.84;5040109;28;20028;-73
2022/04/10 05:24:40;;;;;;;14.35;7.60;;;;;;;0.24;92.50;101728.50;5038847;28;20389;-74
2022/04/10 05:27:06;;;;;;;13.35;7.22;;;;;;;0.35;92.98;101734.78;5042620;28;20044;-73
2022/04/10 05:29:31;;;;;;;14.75;6.97;;;;;;;0.38;93.39;101732.13;5040901;28;20040;-73
2022/04/10 05:31:57;;;;;;;17.63;6.90;;;;;;;0.42;93.77;101735.38;5038113;28;20475;-74
2022/04/10 05:34:23;;;;;;;20.27;7.00;;;;;;;0.41;93.78;101733.69;5039655;28;20036;-74
2022/04/10 05:36:48;;;;;;;13.50;6.50;;;;;;;0.47;94.06;101736.00;5041313;28;20036;-73
2022/04/10 05:39:14;;;;;;;13.48;6.63;;;;;;;0.54;94.11;101734.81;5023094;28;20033;-73
2022/04/10 05:41:40;;;;;;;16.80;7.18;;;;;;;0.57;93.85;101737.22;5039739;28;20024;-73
2022/04/10 05:44:10;;;;;;;11.73;6.75;;;;;;;0.58;94.19;101738.06;5039056;28;20029;-73
2022/04/10 05:46:38;;;;;;;17.58;7.28;;;;;;;0.67;93.97;101739.38;5041380;28;20036;-73
2022/04/10 05:49:06;;;;;;;14.40;7.38;;;;;;;0.71;94.49;101740.88;5023158;28;20040;-73
2022/04/10 05:51:33;;;;;;;11.73;6.90;;;;;;;0.80;94.73;101743.03;5040770;28;20473;-73
2022/04/10 05:53:59;;;;;;;23.52;8.85;;;;;;;0.82;94.78;101743.78;5022489;28;20032;-73
2022/04/10 05:56:27;;;;;;;16.45;7.95;;;;;;;0.93;94.70;101746.69;5040066;28;20155;-73
2022/04/10 05:58:52;;;;;;;18.75;7.57;;;;;;;1.01;94.42;101751.44;5025342;28;20477;-73
2022/04/10 06:01:18;;;;;;;18.83;7.50;;;;;;;1.10;94.10;101751.00;5042815;28;20028;-73
2022/04/10 06:03:45;;;;;;;17.08;7.78;;;;;;;1.33;93.29;101752.47;5022742;28;20116;-73
2022/04/10 06:06:13;;;;;;;11.75;7.32;;;;;;;1.45;92.62;101758.75;5038757;28;20039;-73
2022/04/10 06:08:44;;;;;;;16.88;6.80;;;;;;;1.48;92.72;101758.59;5042319;28;20369;-74
2022/04/10 06:11:10;;;;;;;14.43;7.38;;;;;;;1.65;92.44;101774.84;5041833;28;20657;-73
2022/04/10 06:13:37;;;;;;;18.60;7.32;;;;;;;1.68;92.01;101772.16;5039206;28;20052;-74
2022/04/10 06:16:07;;;;;;;17.58;6.75;;;;;;;1.75;91.56;101778.59;5045280;28;20412;-73
2022/04/10 06:18:34;;;;;;;16.08;6.50;;;;;;;1.70;91.19;101778.84;5041800;28;20119;-74
2022/04/10 06:21:03;;;;;;;14.55;7.05;;;;;;;1.81;91.20;101775.75;5041256;28;20028;-74
2022/04/10 06:23:29;;;;;;;15.63;6.75;;;;;;;1.87;90.77;101778.00;5041103;28;20035;-73
2022/04/10 06:26:01;;;;;;;23.27;7.03;;;;;;;1.90;91.13;101787.25;5042288;28;20040;-73
2022/04/10 06:28:28;;;;;;;21.38;7.20;;;;;;;2.02;90.80;101785.84;5040361;28;20480;-73
2022/04/10 06:30:54;;;;;;;11.80;6.50;;;;;;;2.24;89.45;101788.13;5039162;28;20029;-74
2022/04/10 06:33:24;;;;;;;11.73;6.30;;;;;;;2.21;89.16;101790.88;5024961;28;20033;-74
2022/04/10 06:35:54;;;;;;;13.10;5.68;;;;;;;2.31;89.57;101795.41;5043199;28;20029;-74
2022/04/10 06:38:20;;;;;;;13.75;6.50;;;;;;;2.44;89.07;101784.56;5039183;28;20036;-74
2022/04/10 06:40:51;;;;;;;15.57;7.38;;;;;;;2.68;88.44;101792.72;5041136;28;20032;-75
2022/04/10 06:43:19;;;;;;;13.93;7.15;;;;;;;2.88;87.59;101789.94;5018470;28;20087;-75
2022/04/10 06:46:07;;;;;;;15.98;8.10;;;;;;;3.10;87.13;101797.25;5040716;28;20031;-75
2022/04/10 06:48:39;;;;;;;11.32;6.28;;;;;;;3.37;86.19;101795.84;5039967;28;20028;-75
2022/04/10 06:51:05;;;;;;;12.88;7.05;;;;;;;3.66;84.97;101786.53;5037850;28;20102;-75
2022/04/10 06:53:30;;;;;;;15.75;7.07;;;;;;;3.95;83.61;101794.31;5038609;28;20020;-76
2022/04/10 06:55:57;;;;;;;12.40;5.88;;;;;;;4.26;82.16;101790.78;5038678;28;20033;-76
2022/04/10 06:58:23;;;;;;;14.40;6.22;;;;;;;4.77;80.63;101790.31;5039005;28;20054;-76
2022/04/10 07:00:50;;;;;;;13.98;5.45;;;;;;;5.60;77.41;101788.47;5023763;28;20035;-76
2022/04/10 07:03:15;;;;;;;15.25;6.32;;;;;;;6.54;73.25;101784.84;5019949;28;20024;-76
2022/04/10 07:05:41;;;;;;;14.60;5.90;;;;;;;7.27;70.01;101784.91;5023261;28;20493;-76
2022/04/10 07:08:15;;;;;;;15.68;6.38;;;;;;;8.06;67.16;101787.75;5038626;28;20032;-76
2022/04/10 07:10:41;;;;;;;12.40;5.20;;;;;;;8.48;63.94;101786.28;5024162;28;20119;-76
2022/04/10 07:13:06;;;;;;;12.35;5.40;;;;;;;8.87;62.71;101778.97;5039025;28;20417;-76
2022/04/10 07:15:34;;;;;;;13.07;5.82;;;;;;;8.96;61.90;101787.75;5023882;28;20074;-76
2022/04/10 07:18:00;;;;;;;14.25;6.05;;;;;;;9.34;61.02;101778.66;5023688;28;20036;-76
2022/04/10 07:20:27;;;;;;;9.40;5.13;;;;;;;9.63;59.78;101791.84;5020149;28;20116;-75
2022/04/10 07:25:39;;;;;;;19.52;5.88;;;;;;;10.09;57.76;101784.63;5039651;28;20115;-76
2022/04/10 07:28:05;;;;;;;19.38;5.78;;;;;;;10.14;58.12;101793.66;5042307;28;20683;-75
2022/04/10 07:30:38;;;;;;;12.13;5.65;;;;;;;10.23;57.00;101786.88;5025403;28;20430;-75
2022/04/10 07:33:09;;;;;;;14.02;5.78;;;;;;;10.26;57.87;101796.16;5043401;28;20503;-75
2022/04/10 07:35:42;;;;;;;10.82;5.15;;;;;;;10.63;56.75;101806.03;5031089;28;20106;-76
2022/04/10 07:38:12;;;;;;;15.82;5.10;;;;;;;11.07;55.52;101799.56;5026340;28;20468;-75
2022/04/10 07:40:39;;;;;;;13.77;4.75;;;;;;;10.67;56.06;101799.63;5042410;28;20032;-75
2022/04/10 07:43:08;;;;;;;13.85;5.22;;;;;;;11.02;56.20;101803.53;5043168;28;20507;-75
2022/04/10 07:48:47;;;;;;;12.82;5.25;;;;;;;11.50;53.53;101811.34;5057034;28;20036;-76
2022/04/10 07:51:17;;;;;;;12.32;5.03;;;;;;;11.32;53.22;101806.97;5043349;28;20119;-75
2022/04/10 07:53:53;;;;;;;14.80;5.10;;;;;;;11.08;54.27;101814.19;5040763;28;20115;-75
2022/04/10 07:56:19;;;;;;;13.10;5.28;;;;;;;11.00;53.71;101821.00;5043720;28;20123;-75
2022/04/10 07:58:45;;;;;;;12.30;5.47;;;;;;;11.21;54.93;101826.13;5043113;28;20508;-75
2022/04/10 08:01:42;;;;;;;11.75;4.50;;;;;;;11.76;53.55;101821.19;5040088;28;20044;-76
2022/04/10 08:04:14;;;;;;;11.57;4.23;;;;;;;10.67;55.77;101830.75;5045242;28;20385;-75
2022/04/10 08:07:06;;;;;;;14.40;4.68;;;;;;;10.51;54.84;101837.25;5039583;28;20626;-76
2022/04/10 08:09:32;;;;;;;7.68;2.90;;;;;;;11.06;52.64;101830.88;5041894;28;20028;-75
2022/04/10 08:11:57;;;;;;;15.23;3.65;;;;;;;11.77;52.65;101833.22;5063104;28;20365;-75
2022/04/10 08:14:23;;;;;;;8.30;4.03;;;;;;;11.88;52.89;101835.66;5060697;28;20074;-75
2022/04/10 08:16:48;;;;;;;15.02;3.85;;;;;;;12.36;52.94;101831.31;5044682;28;20409;-76
2022/04/10 08:19:14;;;;;;;8.65;4.50;;;;;;;12.75;49.86;101832.91;5040939;28;20102;-75
2022/04/10 08:21:39;;;;;;;8.93;4.40;;;;;;;12.97;49.64;101834.31;5046423;28;20024;-76
2022/04/10 08:24:08;;;;;;;12.45;3.67;;;;;;;12.60;49.84;101836.03;5053177;28;20031;-75
2022/04/10 08:26:34;;;;;;;11.75;2.95;;;;;;;12.74;49.44;101837.31;5048225;28;20634;-76
2022/04/10 08:28:59;;;;;;;7.15;2.47;;;;;;;12.98;47.92;101852.41;5045096;28;20211;-75
2022/04/10 08:31:28;;;;;;;8.25;3.03;;;;;;;13.38;47.99;101851.19;5044800;28;20580;-76
2022/04/10 08:33:53;;;;;;;10.55;3.08;;;;;;;12.99;48.11;101851.41;5044686;28;20477;-77
2022/04/10 08:36:19;;;;;;;6.93;2.95;;;;;;;13.25;46.21;101845.50;5047770;28;20071;-76
2022/04/10 08:38:45;;;;;;;9.05;3.67;;;;;;;12.31;49.07;101854.34;5065581;28;20032;-77
2022/04/10 08:41:12;;;;;;;15.25;3.75;;;;;;;11.80;50.32;101863.28;5029374;28;20093;-76
2022/04/10 08:43:38;;;;;;;5.07;2.70;;;;;;;11.25;52.20;101856.84;5063382;28;20127;-76
2022/04/10 08:46:04;;;;;;;9.27;3.20;;;;;;;10.88;52.86;101859.22;5042308;28;20682;-76
2022/04/10 08:48:31;;;;;;;13.90;3.30;;;;;;;10.47;54.56;101861.81;5043348;28;20058;-76
2022/04/10 08:50:57;;;;;;;11.52;2.92;;;;;;;10.28;55.13;101859.06;5059142;28;20033;-77
2022/04/10 08:53:24;;;;;;;10.02;2.60;;;;;;;9.87;55.21;101868.47;5027681;28;20822;-75
2022/04/10 08:55:50;;;;;;;10.70;3.03;;;;;;;9.26;55.49;101871.66;5061002;28;20032;-76
2022/04/10 08:58:16;;;;;;;7.57;2.33;;;;;;;9.31;53.58;101879.88;5026578;28;20089;-76
2022/04/10 09:00:43;;;;;;;12.57;2.90;;;;;;;10.35;53.87;101872.38;5047369;28;20293;-75
2022/04/10 09:03:08;;;;;;;15.48;2.72;;;;;;;11.10;50.33;101869.38;5044111;28;20135;-75
2022/04/10 09:05:34;;;;;;;10.30;2.75;;;;;;;11.69;48.59;101865.06;5044093;28;20109;-77
2022/04/10 09:08:14;;;;;;;13.57;2.40;;;;;;;11.66;48.66;101862.75;5023960;28;20140;-76
2022/04/10 09:11:08;;;;;;;9.88;3.45;;;;;;;10.63;49.51;101873.47;5041692;28;20033;-76
2022/04/10 09:13:36;;;;;;;8.65;3.53;;;;;;;9.82;52.60;101876.66;5045149;28;20127;-76
2022/04/10 09:16:08;;;;;;;7.85;3.08;;;;;;;9.52;53.39;101877.34;5060953;28;20040;-75
2022/04/10 09:18:53;;;;;;;;;;;;;;;9.67;51.61;101870.94;5057907;28;20511;-75
2022/04/10 09:21:33;;;;;;;12.45;2.65;;;;;;;9.76;52.89;101871.97;5031378;28;19926;-75
2022/04/10 09:24:09;;;;;;;12.00;2.58;;;;;;;9.44;53.83;101872.78;5043849;28;20661;-76
2022/04/10 09:26:45;;;;;;;9.00;2.17;;;;;;;9.27;52.59;101870.72;5043270;28;20028;-76
2022/04/10 09:29:12;;;;;;;6.07;1.40;;;;;;;9.13;50.55;101876.97;5039181;28;20047;-75
2022/04/10 09:31:38;;;;;;;9.27;1.20;;;;;;;8.92;50.34;101887.22;5041302;28;20115;-76
2022/04/10 09:34:08;;;;;;;6.00;1.70;;;;;;;9.00;50.78;101881.44;5058234;28;20037;-78
2022/04/10 09:36:41;;;;;;;9.70;1.80;;;;;;;8.89;52.39;101883.13;5044526;28;20032;-77
2022/04/10 09:39:29;;;;;;;4.82;1.35;;;;;;;8.99;54.19;101882.41;5039677;28;20106;-76
2022/04/10 09:42:03;;;;;;;6.68;1.73;;;;;;;9.03;52.00;101881.22;5035661;28;20052;-77
2022/04/10 09:44:32;;;;;;;8.57;1.40;;;;;;;8.93;51.71;101876.75;5057167;28;20035;-76
2022/04/10 09:47:03;;;;;;;4.25;1.52;;;;;;;9.04;52.32;101883.69;5042163;28;20028;-76
2022/04/10 09:49:33;;;;;;;7.78;1.48;;;;;;;9.09;50.69;101873.78;5055662;28;20032;-75
2022/04/10 09:52:07;;;;;;;7.05;1.60;;;;;;;8.96;51.12;101878.28;5037541;28;20040;-76
2022/04/10 09:54:44;;;;;;;7.88;1.70;;;;;;;9.05;52.16;101872.38;5039336;28;20440;-76
2022/04/10 09:57:15;;;;;;;2.40;1.30;;;;;;;8.99;51.73;101867.69;5058723;28;20034;-76
2022/04/10 09:59:50;;;;;;;6.47;1.52;;;;;;;8.97;52.16;101879.94;5057806;28;20066;-76
2022/04/10 10:02:20;;;;;;;6.00;1.85;;;;;;;8.88;52.91;101886.63;5038494;28;20453;-76
2022/04/10 10:04:47;;;;;;;9.38;1.83;;;;;;;8.73;54.00;101885.22;5044154;28;20039;-75
2022/04/10 10:07:16;;;;;;;8.30;1.70;;;;;;;8.65;53.43;101887.59;5043081;28;20070;-75
2022/04/10 10:09:43;;;;;;;10.43;1.55;;;;;;;8.46;53.90;101888.97;5044211;28;20400;-76
2022/04/10 10:12:09;;;;;;;5.78;1.58;;;;;;;8.43;54.25;101886.59;5041173;28;20752;-75
2022/04/10 10:14:36;;;;;;;6.25;1.65;;;;;;;8.26;55.04;101887.84;5043203;28;20032;-76
2022/04/10 10:17:04;;;;;;;7.35;1.95;;;;;;;8.22;56.96;101896.75;5059684;28;20082;-76
2022/04/10 10:19:34;;;;;;;7.53;2.00;;;;;;;7.92;58.29;101898.06;5061665;28;20032;-76
2022/04/10 10:22:00;;;;;;;9.77;2.28;;;;;;;7.88;59.20;101891.50;5024753;28;20434;-75
2022/04/10 10:24:30;;;;;;;16.75;2.38;;;;;;;7.99;59.06;101896.69;5043592;28;20074;-77
2022/04/10 10:27:19;;;;;;;6.10;2.40;;;;;;;8.04;59.09;101892.94;5041683;28;20578;-76
2022/04/10 10:30:01;;;;;;;14.55;3.08;;;;;;;8.03;59.58;101896.47;5036868;28;20544;-76
2022/04/10 10:32:40;;;;;;;9.25;2.20;;;;;;;8.10;59.90;101889.91;5042536;28;20067;-75
2022/04/10 10:35:09;;;;;;;17.83;4.47;;;;;;;8.12;59.40;101895.81;5038721;28;20052;-76
2022/04/10 10:37:50;;;;;;;8.38;2.53;;;;;;;8.16;60.43;101886.91;5058859;28;20111;-76
2022/04/10 10:40:19;;;;;;;11.95;2.90;;;;;;;8.24;60.03;101887.13;5041808;28;20596;-76
2022/04/10 10:42:46;;;;;;;10.70;2.85;;;;;;;8.37;60.36;101884.47;5058164;28;20435;-77
2022/04/10 10:45:33;;;;;;;8.27;2.40;;;;;;;8.52;59.20;101880.75;5037870;28;20127;-76
2022/04/10 10:48:38;;;;;;;9.40;2.28;;;;;;;8.91;56.54;101880.38;5039112;28;20063;-76
2022/04/10 10:51:10;;;;;;;5.43;1.65;;;;;;;9.18;54.46;101872.25;5057875;28;20477;-77
2022/04/10 10:53:44;;;;;;;3.53;1.50;;;;;;;9.50;55.71;101874.06;5063380;28;20056;-76
2022/04/10 10:56:19;;;;;;;6.82;1.70;;;;;;;9.61;53.69;101870.63;5045924;28;20032;-76
2022/04/10 10:58:47;;;;;;;11.23;2.33;;;;;;;9.70;53.52;101872.44;5042477;28;20508;-75
2022/04/10 11:01:20;;;;;;;6.80;2.80;;;;;;;9.76;50.55;101861.63;5040862;28;20067;-75
2022/04/10 11:04:02;;;;;;;4.78;1.52;;;;;;;9.89;50.61;101867.44;5043806;28;20028;-76
2022/04/10 11:06:42;;;;;;;5.95;1.20;;;;;;;9.82;50.79;101858.50;5043700;28;20028;-76
2022/04/10 11:09:28;;;;;;;7.55;1.50;;;;;;;10.09;49.84;101862.38;5022060;28;20033;-76
2022/04/10 11:11:56;;;;;;;5.93;1.50;;;;;;;10.30;49.08;101855.44;5013370;28;20060;-76
2022/04/10 11:14:33;;;;;;;7.75;1.67;;;;;;;10.46;48.80;101857.56;5039315;28;20094;-76
2022/04/10 11:17:21;;;;;;;6.43;1.52;;;;;;;10.53;48.44;101857.88;5026031;28;20036;-76
2022/04/10 11:19:57;;;;;;;7.85;1.40;;;;;;;10.85;49.33;101857.72;5059150;28;20039;-76
2022/04/10 11:22:38;;;;;;;4.05;1.70;;;;;;;10.99;47.84;101853.13;5040646;28;20507;-77
2022/04/10 11:25:06;;;;;;;12.70;1.77;;;;;;;11.21;49.99;101847.69;5062845;28;20119;-76
2022/04/10 11:27:48;;;;;;;5.45;1.70;;;;;;;11.43;48.88;101846.63;5044491;28;20525;-77
2022/04/10 11:30:22;;;;;;;4.60;1.50;;;;;;;11.39;49.09;101849.63;5037362;28;20032;-78
2022/04/10 11:32:52;;;;;;;6.70;2.42;;;;;;;11.50;48.29;101842.50;5023425;28;20032;-76
2022/04/10 11:35:23;;;;;;;7.32;2.00;;;;;;;11.23;47.89;101844.97;5044354;28;20041;-78
2022/04/10 11:37:52;;;;;;;6.32;1.63;;;;;;;11.14;49.94;101841.38;5044804;28;20425;-77
2022/04/10 11:40:19;;;;;;;7.63;1.98;;;;;;;11.46;48.38;101838.53;5028262;28;20043;-77